CheckWX is a tool to help pilots better visualize weather data.  It is not intended as a substitute for an official pre-flight weather briefing.

06:58:42 UTC

KHCR METAR
Heber City Municipal - Russ McDonald Field Airport
Heber, Utah, USA
Current

24 mins ago

KHCR 210635Z AUTO 22006KT 10SM SCT045 BKN050 BKN065 05/01 A2973 RMK AO2
Observed
May-21 @ 06:35 UTC
Wind
  • 220° at 6 KTS
Visibility
10 SM
Flight Rules
VFR
Cloud Levels
  • Scattered at 4,500' AGL
  • Broken at 5,000' AGL
  • Broken at 6,500' AGL
Temperature
C / 41°F
Dewpoint
C / 34°F
Humidity
76%
Altimeter
29.73" Hg
Pressure
1006.82 hPa
Previous

44 mins ago

KHCR 210615Z AUTO 22004KT 10SM SCT055 05/01 A2974 RMK AO2
Observed
May-21 @ 06:15 UTC
Wind
  • 220° at 4 KTS
Visibility
10 SM
Flight Rules
VFR
Cloud Levels
  • Scattered at 5,500' AGL
Temperature
C / 41°F
Dewpoint
C / 34°F
Humidity
76%
Altimeter
29.74" Hg
Pressure
1007.12 hPa
Previous

1 hour ago

KHCR 210555Z AUTO 27003KT 10SM SCT065 05/01 A2975 RMK AO2
Observed
May-21 @ 05:55 UTC
Wind
  • 270° at 3 KTS
Visibility
10 SM
Flight Rules
VFR
Cloud Levels
  • Scattered at 6,500' AGL
Temperature
C / 41°F
Dewpoint
C / 34°F
Humidity
76%
Altimeter
29.75" Hg
Pressure
1007.42 hPa